sensor_id;sensor_type;location;lat;lon;timestamp;temperature;humidity
45983;DHT22;31711;47.158;7.346;2023-06-10T00:01:45;19.60;99.90
45983;DHT22;31711;47.158;7.346;2023-06-10T00:04:15;19.60;99.90
45983;DHT22;31711;47.158;7.346;2023-06-10T00:06:43;19.50;99.90
45983;DHT22;31711;47.158;7.346;2023-06-10T00:09:09;19.50;99.90
45983;DHT22;31711;47.158;7.346;2023-06-10T00:11:39;19.40;99.90
45983;DHT22;31711;47.158;7.346;2023-06-10T00:14:06;19.40;99.90
45983;DHT22;31711;47.158;7.346;2023-06-10T00:16:32;19.40;99.90
45983;DHT22;31711;47.158;7.346;2023-06-10T00:19:03;19.30;99.90
45983;DHT22;31711;47.158;7.346;2023-06-10T00:21:33;19.30;99.90
45983;DHT22;31711;47.158;7.346;2023-06-10T00:24:07;19.30;99.90
45983;DHT22;31711;47.158;7.346;2023-06-10T00:26:38;19.10;99.90
45983;DHT22;31711;47.158;7.346;2023-06-10T00:29:05;19.00;99.90
45983;DHT22;31711;47.158;7.346;2023-06-10T00:31:31;19.00;99.90
45983;DHT22;31711;47.158;7.346;2023-06-10T00:33:57;19.00;99.90
45983;DHT22;31711;47.158;7.346;2023-06-10T00:36:24;19.10;99.90
45983;DHT22;31711;47.158;7.346;2023-06-10T00:38:50;19.10;99.90
45983;DHT22;31711;47.158;7.346;2023-06-10T00:41:16;19.10;99.90
45983;DHT22;31711;47.158;7.346;2023-06-10T00:43:42;19.10;99.90
45983;DHT22;31711;47.158;7.346;2023-06-10T00:46:08;19.10;99.90
45983;DHT22;31711;47.158;7.346;2023-06-10T00:48:35;19.10;99.90
45983;DHT22;31711;47.158;7.346;2023-06-10T00:51:01;19.10;99.90
45983;DHT22;31711;47.158;7.346;2023-06-10T00:53:27;19.00;99.90
45983;DHT22;31711;47.158;7.346;2023-06-10T00:55:53;19.00;99.90
45983;DHT22;31711;47.158;7.346;2023-06-10T00:58:19;18.90;99.90
45983;DHT22;31711;47.158;7.346;2023-06-10T01:00:45;18.90;99.90
45983;DHT22;31711;47.158;7.346;2023-06-10T01:03:12;18.80;99.90
45983;DHT22;31711;47.158;7.346;2023-06-10T01:05:39;18.80;99.90
45983;DHT22;31711;47.158;7.346;2023-06-10T01:08:22;18.80;99.90
45983;DHT22;31711;47.158;7.346;2023-06-10T01:11:00;18.80;99.90
45983;DHT22;31711;47.158;7.346;2023-06-10T01:13:27;18.80;99.90
45983;DHT22;31711;47.158;7.346;2023-06-10T01:15:58;18.80;99.90
45983;DHT22;31711;47.158;7.346;2023-06-10T01:18:30;18.70;99.90
45983;DHT22;31711;47.158;7.346;2023-06-10T01:20:57;18.70;99.90
45983;DHT22;31711;47.158;7.346;2023-06-10T01:23:23;18.80;99.90
45983;DHT22;31711;47.158;7.346;2023-06-10T01:26:03;18.70;99.90
45983;DHT22;31711;47.158;7.346;2023-06-10T01:28:48;18.70;99.90
45983;DHT22;31711;47.158;7.346;2023-06-10T01:34:15;18.80;99.90
45983;DHT22;31711;47.158;7.346;2023-06-10T01:36:45;18.70;99.90
45983;DHT22;31711;47.158;7.346;2023-06-10T01:39:15;18.60;99.90
45983;DHT22;31711;47.158;7.346;2023-06-10T01:41:42;18.60;99.90
45983;DHT22;31711;47.158;7.346;2023-06-10T01:44:10;18.70;99.90
45983;DHT22;31711;47.158;7.346;2023-06-10T01:46:36;18.70;99.90
45983;DHT22;31711;47.158;7.346;2023-06-10T01:49:02;18.70;99.90
45983;DHT22;31711;47.158;7.346;2023-06-10T01:51:28;18.70;99.90
45983;DHT22;31711;47.158;7.346;2023-06-10T01:53:54;18.70;99.90
45983;DHT22;31711;47.158;7.346;2023-06-10T01:56:20;18.60;99.90
45983;DHT22;31711;47.158;7.346;2023-06-10T01:58:46;18.60;99.90
45983;DHT22;31711;47.158;7.346;2023-06-10T02:01:12;18.70;99.90
45983;DHT22;31711;47.158;7.346;2023-06-10T02:03:38;18.70;99.90
45983;DHT22;31711;47.158;7.346;2023-06-10T02:06:04;18.60;99.90
45983;DHT22;31711;47.158;7.346;2023-06-10T02:08:30;18.70;99.90
45983;DHT22;31711;47.158;7.346;2023-06-10T02:10:56;18.70;99.90
45983;DHT22;31711;47.158;7.346;2023-06-10T02:13:22;18.60;99.90
45983;DHT22;31711;47.158;7.346;2023-06-10T02:15:48;18.70;99.90
45983;DHT22;31711;47.158;7.346;2023-06-10T02:18:14;18.70;99.90
45983;DHT22;31711;47.158;7.346;2023-06-10T02:20:40;18.70;99.90
45983;DHT22;31711;47.158;7.346;2023-06-10T02:23:06;18.80;99.90
45983;DHT22;31711;47.158;7.346;2023-06-10T02:25:31;18.70;99.90
45983;DHT22;31711;47.158;7.346;2023-06-10T02:27:57;18.70;99.90
45983;DHT22;31711;47.158;7.346;2023-06-10T02:30:23;18.70;99.90
45983;DHT22;31711;47.158;7.346;2023-06-10T02:32:50;18.70;99.90
45983;DHT22;31711;47.158;7.346;2023-06-10T02:35:16;18.60;99.90
45983;DHT22;31711;47.158;7.346;2023-06-10T02:37:43;18.60;99.90
45983;DHT22;31711;47.158;7.346;2023-06-10T02:40:10;18.50;99.90
45983;DHT22;31711;47.158;7.346;2023-06-10T02:42:36;18.40;99.90
45983;DHT22;31711;47.158;7.346;2023-06-10T02:45:03;18.40;99.90
45983;DHT22;31711;47.158;7.346;2023-06-10T02:47:29;18.40;99.90
45983;DHT22;31711;47.158;7.346;2023-06-10T02:49:55;18.20;99.90
45983;DHT22;31711;47.158;7.346;2023-06-10T02:52:21;18.20;99.90
45983;DHT22;31711;47.158;7.346;2023-06-10T02:54:48;18.20;99.90
45983;DHT22;31711;47.158;7.346;2023-06-10T02:57:14;18.20;99.90
45983;DHT22;31711;47.158;7.346;2023-06-10T02:59:40;18.20;99.90
45983;DHT22;31711;47.158;7.346;2023-06-10T03:02:06;18.20;99.90
45983;DHT22;31711;47.158;7.346;2023-06-10T03:04:33;18.10;99.90
45983;DHT22;31711;47.158;7.346;2023-06-10T03:06:59;18.10;99.90
45983;DHT22;31711;47.158;7.346;2023-06-10T03:09:29;18.00;99.90
45983;DHT22;31711;47.158;7.346;2023-06-10T03:11:55;18.00;99.90
45983;DHT22;31711;47.158;7.346;2023-06-10T03:14:21;17.90;99.90
45983;DHT22;31711;47.158;7.346;2023-06-10T03:16:47;17.80;99.90
45983;DHT22;31711;47.158;7.346;2023-06-10T03:19:14;17.90;99.90
45983;DHT22;31711;47.158;7.346;2023-06-10T03:21:44;17.80;99.90
45983;DHT22;31711;47.158;7.346;2023-06-10T03:24:10;17.80;99.90
45983;DHT22;31711;47.158;7.346;2023-06-10T03:26:36;17.80;99.90
45983;DHT22;31711;47.158;7.346;2023-06-10T03:29:02;17.70;99.90
45983;DHT22;31711;47.158;7.346;2023-06-10T03:31:28;17.70;99.90
45983;DHT22;31711;47.158;7.346;2023-06-10T03:33:55;17.70;99.90
45983;DHT22;31711;47.158;7.346;2023-06-10T03:36:21;17.80;99.90
45983;DHT22;31711;47.158;7.346;2023-06-10T03:38:47;17.80;99.90
45983;DHT22;31711;47.158;7.346;2023-06-10T03:41:13;17.80;99.90
45983;DHT22;31711;47.158;7.346;2023-06-10T03:43:40;17.80;99.90
45983;DHT22;31711;47.158;7.346;2023-06-10T03:46:06;17.90;99.90
45983;DHT22;31711;47.158;7.346;2023-06-10T03:48:32;17.90;99.90
45983;DHT22;31711;47.158;7.346;2023-06-10T03:50:58;17.80;99.90
45983;DHT22;31711;47.158;7.346;2023-06-10T03:53:25;17.90;99.90
45983;DHT22;31711;47.158;7.346;2023-06-10T03:55:51;17.90;99.90
45983;DHT22;31711;47.158;7.346;2023-06-10T03:58:16;18.00;99.90
45983;DHT22;31711;47.158;7.346;2023-06-10T04:00:43;18.00;99.90
45983;DHT22;31711;47.158;7.346;2023-06-10T04:03:11;18.10;99.90
45983;DHT22;31711;47.158;7.346;2023-06-10T04:05:40;18.10;99.90
45983;DHT22;31711;47.158;7.346;2023-06-10T04:08:08;18.20;99.90
45983;DHT22;31711;47.158;7.346;2023-06-10T04:10:34;18.20;99.90
45983;DHT22;31711;47.158;7.346;2023-06-10T04:13:00;18.20;99.90
45983;DHT22;31711;47.158;7.346;2023-06-10T04:15:26;18.20;99.90
45983;DHT22;31711;47.158;7.346;2023-06-10T04:17:52;18.30;99.90
45983;DHT22;31711;47.158;7.346;2023-06-10T04:20:18;18.30;99.90
45983;DHT22;31711;47.158;7.346;2023-06-10T04:22:44;18.40;99.90
45983;DHT22;31711;47.158;7.346;2023-06-10T04:25:10;18.40;99.90
45983;DHT22;31711;47.158;7.346;2023-06-10T04:27:36;18.40;99.90
45983;DHT22;31711;47.158;7.346;2023-06-10T04:30:03;18.50;99.90
45983;DHT22;31711;47.158;7.346;2023-06-10T04:32:30;18.50;99.90
45983;DHT22;31711;47.158;7.346;2023-06-10T04:34:55;18.60;99.90
45983;DHT22;31711;47.158;7.346;2023-06-10T04:37:22;18.50;99.90
45983;DHT22;31711;47.158;7.346;2023-06-10T04:39:48;18.50;99.90
45983;DHT22;31711;47.158;7.346;2023-06-10T04:42:14;18.60;99.90
45983;DHT22;31711;47.158;7.346;2023-06-10T04:44:40;18.60;99.90
45983;DHT22;31711;47.158;7.346;2023-06-10T04:47:06;18.60;99.90
45983;DHT22;31711;47.158;7.346;2023-06-10T04:49:33;18.70;99.90
45983;DHT22;31711;47.158;7.346;2023-06-10T04:51:59;18.70;99.90
45983;DHT22;31711;47.158;7.346;2023-06-10T04:54:25;18.70;99.90
45983;DHT22;31711;47.158;7.346;2023-06-10T04:56:51;18.80;99.90
45983;DHT22;31711;47.158;7.346;2023-06-10T04:59:17;18.90;99.90
45983;DHT22;31711;47.158;7.346;2023-06-10T05:01:43;19.00;99.90
45983;DHT22;31711;47.158;7.346;2023-06-10T05:04:09;19.10;99.90
45983;DHT22;31711;47.158;7.346;2023-06-10T05:06:35;19.10;99.90
45983;DHT22;31711;47.158;7.346;2023-06-10T05:09:02;19.20;99.90
45983;DHT22;31711;47.158;7.346;2023-06-10T05:11:28;19.30;99.90
45983;DHT22;31711;47.158;7.346;2023-06-10T05:13:54;19.30;99.90
45983;DHT22;31711;47.158;7.346;2023-06-10T05:16:20;19.10;99.90
45983;DHT22;31711;47.158;7.346;2023-06-10T05:18:47;19.10;99.90
45983;DHT22;31711;47.158;7.346;2023-06-10T05:21:13;19.20;99.90
45983;DHT22;31711;47.158;7.346;2023-06-10T05:23:39;19.40;99.90
45983;DHT22;31711;47.158;7.346;2023-06-10T05:26:05;19.50;99.90
45983;DHT22;31711;47.158;7.346;2023-06-10T05:28:31;19.50;99.90
45983;DHT22;31711;47.158;7.346;2023-06-10T05:30:57;19.40;99.90
45983;DHT22;31711;47.158;7.346;2023-06-10T05:33:23;19.70;99.90
45983;DHT22;31711;47.158;7.346;2023-06-10T05:35:49;19.70;99.90
45983;DHT22;31711;47.158;7.346;2023-06-10T05:38:15;20.00;99.90
45983;DHT22;31711;47.158;7.346;2023-06-10T05:40:41;20.30;99.90
45983;DHT22;31711;47.158;7.346;2023-06-10T05:43:07;20.30;99.90
45983;DHT22;31711;47.158;7.346;2023-06-10T05:45:33;20.30;99.90
45983;DHT22;31711;47.158;7.346;2023-06-10T05:47:59;20.40;99.90
45983;DHT22;31711;47.158;7.346;2023-06-10T05:50:25;20.00;99.90
45983;DHT22;31711;47.158;7.346;2023-06-10T05:52:51;20.20;99.90
45983;DHT22;31711;47.158;7.346;2023-06-10T05:55:19;20.10;99.90
45983;DHT22;31711;47.158;7.346;2023-06-10T05:57:45;20.20;99.90
45983;DHT22;31711;47.158;7.346;2023-06-10T06:00:11;20.00;99.90
45983;DHT22;31711;47.158;7.346;2023-06-10T06:02:38;20.20;99.90
45983;DHT22;31711;47.158;7.346;2023-06-10T06:05:04;20.30;99.90
45983;DHT22;31711;47.158;7.346;2023-06-10T06:07:30;20.40;99.90
45983;DHT22;31711;47.158;7.346;2023-06-10T06:09:56;20.40;99.90
45983;DHT22;31711;47.158;7.346;2023-06-10T06:12:22;20.50;99.90
45983;DHT22;31711;47.158;7.346;2023-06-10T06:14:47;20.70;99.90
45983;DHT22;31711;47.158;7.346;2023-06-10T06:17:14;20.80;99.90
45983;DHT22;31711;47.158;7.346;2023-06-10T06:19:40;20.90;99.90
45983;DHT22;31711;47.158;7.346;2023-06-10T06:22:06;21.10;99.90
45983;DHT22;31711;47.158;7.346;2023-06-10T06:24:32;21.30;99.90
45983;DHT22;31711;47.158;7.346;2023-06-10T06:26:58;21.50;99.90
45983;DHT22;31711;47.158;7.346;2023-06-10T06:29:24;21.60;99.90
45983;DHT22;31711;47.158;7.346;2023-06-10T06:31:50;21.80;99.90
45983;DHT22;31711;47.158;7.346;2023-06-10T06:34:16;22.00;99.90
45983;DHT22;31711;47.158;7.346;2023-06-10T06:36:42;21.90;99.90
45983;DHT22;31711;47.158;7.346;2023-06-10T06:39:08;22.00;99.90
45983;DHT22;31711;47.158;7.346;2023-06-10T06:41:34;22.00;99.90
45983;DHT22;31711;47.158;7.346;2023-06-10T06:44:00;22.10;99.90
45983;DHT22;31711;47.158;7.346;2023-06-10T06:46:26;22.20;99.90
45983;DHT22;31711;47.158;7.346;2023-06-10T06:48:52;22.10;99.90
45983;DHT22;31711;47.158;7.346;2023-06-10T06:51:18;22.00;99.90
45983;DHT22;31711;47.158;7.346;2023-06-10T06:53:44;22.00;99.90
45983;DHT22;31711;47.158;7.346;2023-06-10T06:56:11;22.00;99.90
45983;DHT22;31711;47.158;7.346;2023-06-10T06:58:37;21.70;99.90
45983;DHT22;31711;47.158;7.346;2023-06-10T07:01:03;21.70;99.90
45983;DHT22;31711;47.158;7.346;2023-06-10T07:03:30;21.70;99.90
45983;DHT22;31711;47.158;7.346;2023-06-10T07:05:56;21.80;99.90
45983;DHT22;31711;47.158;7.346;2023-06-10T07:08:21;21.70;99.90
45983;DHT22;31711;47.158;7.346;2023-06-10T07:10:47;21.70;99.90
45983;DHT22;31711;47.158;7.346;2023-06-10T07:13:15;21.40;99.90
45983;DHT22;31711;47.158;7.346;2023-06-10T07:15:41;21.50;99.90
45983;DHT22;31711;47.158;7.346;2023-06-10T07:18:06;21.60;99.90
45983;DHT22;31711;47.158;7.346;2023-06-10T07:20:32;21.70;99.90
45983;DHT22;31711;47.158;7.346;2023-06-10T07:22:58;21.90;99.90
45983;DHT22;31711;47.158;7.346;2023-06-10T07:25:24;21.80;99.90
45983;DHT22;31711;47.158;7.346;2023-06-10T07:27:50;21.80;99.90
45983;DHT22;31711;47.158;7.346;2023-06-10T07:30:16;21.90;99.90
45983;DHT22;31711;47.158;7.346;2023-06-10T07:32:42;21.80;99.90
45983;DHT22;31711;47.158;7.346;2023-06-10T07:35:10;21.80;99.90
45983;DHT22;31711;47.158;7.346;2023-06-10T07:37:39;21.50;99.90
45983;DHT22;31711;47.158;7.346;2023-06-10T07:40:05;21.70;99.90
45983;DHT22;31711;47.158;7.346;2023-06-10T07:42:35;21.80;99.90
45983;DHT22;31711;47.158;7.346;2023-06-10T07:45:03;21.70;99.90
45983;DHT22;31711;47.158;7.346;2023-06-10T07:47:29;21.90;99.90
45983;DHT22;31711;47.158;7.346;2023-06-10T07:49:56;21.90;99.90
45983;DHT22;31711;47.158;7.346;2023-06-10T07:52:22;21.60;99.90
45983;DHT22;31711;47.158;7.346;2023-06-10T07:54:48;21.80;99.90
45983;DHT22;31711;47.158;7.346;2023-06-10T07:57:14;22.00;99.90
45983;DHT22;31711;47.158;7.346;2023-06-10T07:59:41;22.00;99.90
45983;DHT22;31711;47.158;7.346;2023-06-10T08:02:06;22.00;99.90
45983;DHT22;31711;47.158;7.346;2023-06-10T08:04:32;22.10;99.90
45983;DHT22;31711;47.158;7.346;2023-06-10T08:07:00;22.20;99.90
45983;DHT22;31711;47.158;7.346;2023-06-10T08:09:26;22.10;99.90
45983;DHT22;31711;47.158;7.346;2023-06-10T08:11:52;22.00;99.90
45983;DHT22;31711;47.158;7.346;2023-06-10T08:14:18;22.30;99.90
45983;DHT22;31711;47.158;7.346;2023-06-10T08:16:44;22.40;99.90
45983;DHT22;31711;47.158;7.346;2023-06-10T08:19:11;22.70;99.90
45983;DHT22;31711;47.158;7.346;2023-06-10T08:21:37;22.80;99.90
45983;DHT22;31711;47.158;7.346;2023-06-10T08:24:06;23.00;99.90
45983;DHT22;31711;47.158;7.346;2023-06-10T08:26:32;23.40;99.90
45983;DHT22;31711;47.158;7.346;2023-06-10T08:28:58;23.30;99.90
45983;DHT22;31711;47.158;7.346;2023-06-10T08:31:24;23.30;99.90
45983;DHT22;31711;47.158;7.346;2023-06-10T08:33:50;23.60;99.90
45983;DHT22;31711;47.158;7.346;2023-06-10T08:36:19;24.10;99.90
45983;DHT22;31711;47.158;7.346;2023-06-10T08:38:45;24.10;99.90
45983;DHT22;31711;47.158;7.346;2023-06-10T08:41:14;24.40;99.90
45983;DHT22;31711;47.158;7.346;2023-06-10T08:43:48;24.00;99.90
45983;DHT22;31711;47.158;7.346;2023-06-10T08:46:17;23.40;99.90
45983;DHT22;31711;47.158;7.346;2023-06-10T08:48:43;23.80;99.90
45983;DHT22;31711;47.158;7.346;2023-06-10T08:51:11;24.00;99.90
45983;DHT22;31711;47.158;7.346;2023-06-10T08:53:48;23.60;99.90
45983;DHT22;31711;47.158;7.346;2023-06-10T08:56:16;23.60;99.90
45983;DHT22;31711;47.158;7.346;2023-06-10T08:58:43;23.90;99.90
45983;DHT22;31711;47.158;7.346;2023-06-10T09:01:09;24.10;99.90
45983;DHT22;31711;47.158;7.346;2023-06-10T09:03:37;24.20;99.90
45983;DHT22;31711;47.158;7.346;2023-06-10T09:06:07;24.50;99.90
45983;DHT22;31711;47.158;7.346;2023-06-10T09:08:33;24.30;99.90
45983;DHT22;31711;47.158;7.346;2023-06-10T09:11:00;24.10;99.90
45983;DHT22;31711;47.158;7.346;2023-06-10T09:13:26;24.40;99.90
45983;DHT22;31711;47.158;7.346;2023-06-10T09:15:52;24.60;99.90
45983;DHT22;31711;47.158;7.346;2023-06-10T09:18:18;24.50;99.90
45983;DHT22;31711;47.158;7.346;2023-06-10T09:20:45;24.70;99.90
45983;DHT22;31711;47.158;7.346;2023-06-10T09:23:12;24.70;99.90
45983;DHT22;31711;47.158;7.346;2023-06-10T09:25:38;24.90;99.90
45983;DHT22;31711;47.158;7.346;2023-06-10T09:28:12;25.00;99.90
45983;DHT22;31711;47.158;7.346;2023-06-10T09:30:39;25.10;99.90
45983;DHT22;31711;47.158;7.346;2023-06-10T09:33:11;25.20;99.90
45983;DHT22;31711;47.158;7.346;2023-06-10T09:35:48;25.10;99.90
45983;DHT22;31711;47.158;7.346;2023-06-10T09:38:21;25.30;99.90
45983;DHT22;31711;47.158;7.346;2023-06-10T09:40:52;25.30;99.90
45983;DHT22;31711;47.158;7.346;2023-06-10T09:43:19;25.00;99.90
45983;DHT22;31711;47.158;7.346;2023-06-10T09:45:51;24.90;99.90
45983;DHT22;31711;47.158;7.346;2023-06-10T09:48:20;24.50;99.90
45983;DHT22;31711;47.158;7.346;2023-06-10T09:50:46;24.40;99.90
45983;DHT22;31711;47.158;7.346;2023-06-10T09:53:12;24.30;99.90
45983;DHT22;31711;47.158;7.346;2023-06-10T09:55:39;24.60;99.90
45983;DHT22;31711;47.158;7.346;2023-06-10T09:58:05;25.00;99.90
45983;DHT22;31711;47.158;7.346;2023-06-10T10:00:32;25.20;99.90
45983;DHT22;31711;47.158;7.346;2023-06-10T10:02:59;25.50;99.90
45983;DHT22;31711;47.158;7.346;2023-06-10T10:05:25;25.70;99.90
45983;DHT22;31711;47.158;7.346;2023-06-10T10:07:52;25.20;99.90
45983;DHT22;31711;47.158;7.346;2023-06-10T10:10:20;25.00;99.90
45983;DHT22;31711;47.158;7.346;2023-06-10T10:12:47;24.70;99.90
45983;DHT22;31711;47.158;7.346;2023-06-10T10:15:16;24.90;99.90
45983;DHT22;31711;47.158;7.346;2023-06-10T10:17:49;25.00;99.90
45983;DHT22;31711;47.158;7.346;2023-06-10T10:20:21;24.40;99.90
45983;DHT22;31711;47.158;7.346;2023-06-10T10:22:49;24.60;99.90
45983;DHT22;31711;47.158;7.346;2023-06-10T10:25:24;25.10;99.90
45983;DHT22;31711;47.158;7.346;2023-06-10T10:27:58;25.60;99.90
45983;DHT22;31711;47.158;7.346;2023-06-10T10:30:27;25.60;99.90
45983;DHT22;31711;47.158;7.346;2023-06-10T10:33:09;25.70;99.90
45983;DHT22;31711;47.158;7.346;2023-06-10T10:35:36;25.90;99.90
45983;DHT22;31711;47.158;7.346;2023-06-10T10:38:02;25.90;99.90
45983;DHT22;31711;47.158;7.346;2023-06-10T10:40:29;25.80;99.90
45983;DHT22;31711;47.158;7.346;2023-06-10T10:42:56;25.90;99.80
45983;DHT22;31711;47.158;7.346;2023-06-10T10:45:24;26.00;99.50
45983;DHT22;31711;47.158;7.346;2023-06-10T10:47:53;25.90;99.70
45983;DHT22;31711;47.158;7.346;2023-06-10T10:50:22;25.70;99.20
45983;DHT22;31711;47.158;7.346;2023-06-10T10:52:55;25.60;98.80
45983;DHT22;31711;47.158;7.346;2023-06-10T10:55:23;25.80;99.60
45983;DHT22;31711;47.158;7.346;2023-06-10T10:57:59;26.30;98.90
45983;DHT22;31711;47.158;7.346;2023-06-10T11:02:58;25.70;98.10
45983;DHT22;31711;47.158;7.346;2023-06-10T11:05:44;26.00;98.50
45983;DHT22;31711;47.158;7.346;2023-06-10T11:08:14;26.50;99.00
45983;DHT22;31711;47.158;7.346;2023-06-10T11:10:51;26.60;98.30
45983;DHT22;31711;47.158;7.346;2023-06-10T11:13:22;27.10;99.40
45983;DHT22;31711;47.158;7.346;2023-06-10T11:15:52;27.50;97.30
45983;DHT22;31711;47.158;7.346;2023-06-10T11:18:43;27.70;96.20
45983;DHT22;31711;47.158;7.346;2023-06-10T11:21:09;28.30;97.60
45983;DHT22;31711;47.158;7.346;2023-06-10T11:23:39;28.70;97.00
45983;DHT22;31711;47.158;7.346;2023-06-10T11:29:04;28.70;95.80
45983;DHT22;31711;47.158;7.346;2023-06-10T11:31:45;28.60;94.90
45983;DHT22;31711;47.158;7.346;2023-06-10T11:34:12;28.00;95.40
45983;DHT22;31711;47.158;7.346;2023-06-10T11:36:42;27.40;95.60
45983;DHT22;31711;47.158;7.346;2023-06-10T11:39:11;28.00;96.60
45983;DHT22;31711;47.158;7.346;2023-06-10T11:41:39;28.50;96.00
45983;DHT22;31711;47.158;7.346;2023-06-10T11:44:12;28.90;95.80
45983;DHT22;31711;47.158;7.346;2023-06-10T11:46:39;28.90;94.50
45983;DHT22;31711;47.158;7.346;2023-06-10T11:49:06;28.90;94.00
45983;DHT22;31711;47.158;7.346;2023-06-10T11:51:38;28.40;94.20
